Ann Arbor, MI

5:21 AM EDT on July 25, 2016 (GMT -0400)
Walker Briar Works | | Change Station

Elev 961 ft 42.26 °N, 83.77 °W | Updated 1 minute ago

Rain
Rain
74.7 °F
Feels Like 72 °F
N
0.0
Wind Variable Wind from SW
Gusts 0.7 mph

Today
High -- | Low -- °F
--% Chance of Precip.
Yesterday
High -- | Low -- °F
Precip. -- in
Pressure 29.89 in
Visibility 10.0 miles
Clouds Few 5500 ft
Few 11000 ft
Heat Index 72 °F
Dew Point 74 °F
Humidity 99%
Rainfall 0.00 in
Snow Depth Not available.
6:21 AM 9:01 PM
Waning Gibbous, 68% visible
METAR KARB 250853Z AUTO 22004KT 10SM FEW055 FEW110 23/22 A2991 RMK AO2 LTG DSNT E-S RAE38 TSE07 SLP120 P0003 60003 T02280222 53010
Pressure 29.89 in
Visibility 10.0 miles
Clouds Few 5500 ft
Few 11000 ft
Heat Index 72 °F
Dew Point 74 °F
Humidity 99%
Rainfall 0.00 in
Snow Depth Not available.
6:21 AM 9:01 PM
Waning Gibbous, 68% visible
METAR KARB 250853Z AUTO 22004KT 10SM FEW055 FEW110 23/22 A2991 RMK AO2 LTG DSNT E-S RAE38 TSE07 SLP120 P0003 60003 T02280222 53010

10-Day Weather Forecast

Almanac

Astronomy

Jul. 25, 2016 Rise Set
Actual Time
Civil Twilight
Nautical Twilight
Astronomical Twilight
Moon
Length of Visible Light
Length of Day
Tomorrow will be .
, % of the Moon is Illuminated

Today's Extremes

State Highs State Lows

Community

WunderPhotos

Upload Photos

1,927,289 photos uploaded!

WunderBlog® & News

Nearby

Air Quality

  Air Quality AQ Index Pollutant
Not available.

Snow Depth

Station Depth Elevation

Earthquake Activity

City Distance Mag. Time & Date
Minimum magnitude displayed is 2.5.

Coastal Water Temperatures

Place Temperature

Stations

Nearby Weather Stations

Station Location Temp. Windchill Dew Point Humidity Wind Precip. Elev Updated Type
                   

Watches & Warnings

There are currently no watches in effect.